createdAt,value
2023-11-25T00:00:11.388Z,98888.63
2023-11-25T00:00:44.760Z,98884.28
2023-11-25T00:01:18.737Z,98893.06
2023-11-25T00:01:32.246Z,98894.00
2023-11-25T00:01:45.254Z,98888.00
2023-11-25T00:01:58.062Z,98893.31
2023-11-25T00:02:11.013Z,98890.78
2023-11-25T00:02:25.177Z,98893.41
2023-11-25T00:02:38.524Z,98889.09
2023-11-25T00:02:52.956Z,98895.38
2023-11-25T00:03:05.879Z,98891.03
2023-11-25T00:03:22.962Z,98898.97
2023-11-25T00:03:35.923Z,98896.31
2023-11-25T00:03:48.935Z,98897.31
2023-11-25T00:04:02.056Z,98893.69
2023-11-25T00:04:14.858Z,98894.66
2023-11-25T00:04:28.349Z,98892.97
2023-11-25T00:04:41.217Z,98898.25
2023-11-25T00:04:54.205Z,98893.06
2023-11-25T00:05:07.123Z,98894.88
2023-11-25T00:05:20.934Z,98901.97
2023-11-25T00:05:33.617Z,98895.59
2023-11-25T00:05:46.722Z,98897.41
2023-11-25T00:06:00.195Z,98901.00
2023-11-25T00:06:13.652Z,98901.88
2023-11-25T00:06:26.957Z,98903.66
2023-11-25T00:06:40.127Z,98890.56
2023-11-25T00:06:52.787Z,98904.63
2023-11-25T00:07:05.931Z,98905.56
2023-11-25T00:07:19.634Z,98898.50
2023-11-25T00:07:34.427Z,98901.25
2023-11-25T00:07:48.027Z,98905.56
2023-11-25T00:08:00.734Z,98904.03
2023-11-25T00:08:13.474Z,98903.06
2023-11-25T00:08:27.766Z,98902.25
2023-11-25T00:08:40.793Z,98904.88
2023-11-25T00:08:54.655Z,98904.03
2023-11-25T00:09:07.655Z,98901.38
2023-11-25T00:09:20.940Z,98907.53
2023-11-25T00:09:34.478Z,98907.66
2023-11-25T00:09:48.222Z,98904.28
2023-11-25T00:10:02.331Z,98901.63
2023-11-25T00:10:20.209Z,98905.94
2023-11-25T00:10:36.493Z,98909.56
2023-11-25T00:10:51.267Z,98906.22
2023-11-25T00:11:14.305Z,98906.09
2023-11-25T00:11:30.960Z,98916.78
2023-11-25T00:11:43.658Z,98909.78
2023-11-25T00:11:56.341Z,98908.75
2023-11-25T00:12:10.048Z,98909.69
2023-11-25T00:12:23.896Z,98910.66
2023-11-25T00:12:37.781Z,98913.31
2023-11-25T00:12:51.212Z,98910.78
2023-11-25T00:13:05.954Z,98917.72
2023-11-25T00:13:18.805Z,98920.38
2023-11-25T00:13:31.655Z,98916.91
2023-11-25T00:13:45.167Z,98917.03
2023-11-25T00:13:58.017Z,98917.88
2023-11-25T00:14:11.201Z,98917.88
2023-11-25T00:14:26.101Z,98920.63
2023-11-25T00:14:40.607Z,98919.69
2023-11-25T00:14:53.579Z,98922.31
2023-11-25T00:15:07.878Z,98917.97
2023-11-25T00:15:21.327Z,98915.22
2023-11-25T00:15:34.779Z,98917.16
2023-11-25T00:15:47.534Z,98923.38
2023-11-25T00:16:00.237Z,98918.97
2023-11-25T00:16:13.378Z,98921.59
2023-11-25T00:16:26.632Z,98911.88
2023-11-25T00:16:40.084Z,98915.34
2023-11-25T00:16:53.208Z,98913.53
2023-11-25T00:17:07.055Z,98922.44
2023-11-25T00:17:19.775Z,98920.63
2023-11-25T00:17:34.224Z,98923.16
2023-11-25T00:17:47.320Z,98911.75
2023-11-25T00:18:01.634Z,98919.69
2023-11-25T00:18:14.518Z,98925.91
2023-11-25T00:18:29.244Z,98930.38
2023-11-25T00:18:43.542Z,98919.91
2023-11-25T00:18:56.833Z,98918.81
2023-11-25T00:19:12.215Z,98922.44
2023-11-25T00:19:26.166Z,98923.38
2023-11-25T00:19:39.020Z,98926.88
2023-11-25T00:19:51.966Z,98923.38
2023-11-25T00:20:06.269Z,98920.63
2023-11-25T00:20:19.108Z,98924.25
2023-11-25T00:20:31.767Z,98933.94
2023-11-25T00:20:45.002Z,98920.88
2023-11-25T00:20:59.619Z,98926.16
2023-11-25T00:21:12.656Z,98926.16
2023-11-25T00:21:25.681Z,98930.59
2023-11-25T00:21:38.369Z,98927.13
2023-11-25T00:21:51.081Z,98936.75
2023-11-25T00:22:03.953Z,98924.47
2023-11-25T00:22:16.753Z,98928.94
2023-11-25T00:22:29.468Z,98929.03
2023-11-25T00:22:43.143Z,98932.41
2023-11-25T00:22:55.835Z,98933.50
2023-11-25T00:23:08.610Z,98929.03
2023-11-25T00:23:22.838Z,98929.03
2023-11-25T00:23:35.531Z,98928.22
2023-11-25T00:23:48.750Z,98936.25
2023-11-25T00:24:01.479Z,98925.69
2023-11-25T00:24:14.213Z,98936.25
2023-11-25T00:24:28.029Z,98930.13
2023-11-25T00:24:41.315Z,98926.66
2023-11-25T00:24:54.014Z,98939.75
2023-11-25T00:25:07.394Z,98934.59
2023-11-25T00:25:21.091Z,98935.53
2023-11-25T00:25:33.958Z,98937.22
2023-11-25T00:25:46.815Z,98933.75
2023-11-25T00:25:59.549Z,98931.09
2023-11-25T00:26:13.620Z,98935.53
2023-11-25T00:26:26.597Z,98944.31
2023-11-25T00:26:39.265Z,98936.38
2023-11-25T00:26:51.939Z,98935.53
2023-11-25T00:27:05.097Z,98938.06
2023-11-25T00:27:18.912Z,98939.16
2023-11-25T00:27:31.953Z,98939.16
2023-11-25T00:27:44.708Z,98942.63
2023-11-25T00:27:57.507Z,98942.72
2023-11-25T00:28:11.862Z,98941.78
2023-11-25T00:28:24.784Z,98934.69
2023-11-25T00:28:37.614Z,98935.66
2023-11-25T00:28:51.033Z,98932.16
2023-11-25T00:29:04.219Z,98941.91
2023-11-25T00:29:17.109Z,98941.91
2023-11-25T00:29:29.892Z,98948.00
2023-11-25T00:29:42.805Z,98943.72
2023-11-25T00:29:55.493Z,98936.63
2023-11-25T00:30:08.581Z,98940.09
2023-11-25T00:30:22.447Z,98942.88
2023-11-25T00:30:35.143Z,98933.97
2023-11-25T00:30:47.973Z,98942.88
2023-11-25T00:31:00.663Z,98943.00
2023-11-25T00:31:13.361Z,98949.00
2023-11-25T00:31:26.162Z,98942.88
2023-11-25T00:31:38.970Z,98945.53
2023-11-25T00:31:56.218Z,98950.81
2023-11-25T00:32:08.865Z,98946.47
2023-11-25T00:32:21.539Z,98948.28
2023-11-25T00:32:38.427Z,98945.53
2023-11-25T00:32:51.700Z,98948.28
2023-11-25T00:33:06.157Z,98945.63
2023-11-25T00:33:19.678Z,98944.78
2023-11-25T00:33:32.391Z,98944.66
2023-11-25T00:33:46.230Z,98939.38
2023-11-25T00:33:59.489Z,98945.63
2023-11-25T00:34:12.309Z,98943.00
2023-11-25T00:34:25.681Z,98942.16
2023-11-25T00:34:38.544Z,98949.25
2023-11-25T00:34:51.299Z,98951.88
2023-11-25T00:35:04.313Z,98943.97
2023-11-25T00:35:17.029Z,98945.75
2023-11-25T00:35:29.717Z,98941.31
2023-11-25T00:35:44.033Z,98942.25
2023-11-25T00:35:56.698Z,98945.75
2023-11-25T00:36:09.509Z,98949.34
2023-11-25T00:36:22.277Z,98952.00
2023-11-25T00:36:35.008Z,98948.53
2023-11-25T00:36:48.015Z,98946.59
2023-11-25T00:37:03.325Z,98950.19
2023-11-25T00:37:17.634Z,98940.59
2023-11-25T00:37:30.404Z,98954.63
2023-11-25T00:37:43.708Z,98950.19
2023-11-25T00:37:57.470Z,98953.66
2023-11-25T00:38:10.230Z,98955.47
2023-11-25T00:38:23.528Z,98958.13
2023-11-25T00:38:36.869Z,98948.53
2023-11-25T00:38:49.654Z,98951.16
2023-11-25T00:39:02.324Z,98955.59
2023-11-25T00:39:16.492Z,98955.59
2023-11-25T00:39:30.503Z,98959.09
2023-11-25T00:39:43.373Z,98958.13
2023-11-25T00:39:56.059Z,98952.84
2023-11-25T00:40:10.876Z,98953.66
2023-11-25T00:40:27.023Z,98955.47
2023-11-25T00:40:40.093Z,98958.13
2023-11-25T00:40:52.827Z,98955.47
2023-11-25T00:41:06.792Z,98958.13
2023-11-25T00:41:20.658Z,98954.63
2023-11-25T00:41:33.404Z,98962.47
2023-11-25T00:41:46.061Z,98959.09
2023-11-25T00:41:59.308Z,98959.09
2023-11-25T00:42:12.059Z,98961.75
2023-11-25T00:42:25.023Z,98961.84
2023-11-25T00:42:40.553Z,98956.44
2023-11-25T00:42:54.478Z,98954.63
2023-11-25T00:43:07.542Z,98958.38
2023-11-25T00:43:20.271Z,98963.50
2023-11-25T00:43:33.229Z,98959.09
2023-11-25T00:43:46.081Z,98965.31
2023-11-25T00:43:59.615Z,98956.56
2023-11-25T00:44:12.721Z,98959.22
2023-11-25T00:44:25.701Z,98962.69
2023-11-25T00:44:40.188Z,98961.84
2023-11-25T00:44:53.026Z,98954.75
2023-11-25T00:45:06.459Z,98959.09
2023-11-25T00:45:19.389Z,98957.28
2023-11-25T00:45:33.177Z,98959.94
2023-11-25T00:45:46.085Z,98962.56
2023-11-25T00:45:59.162Z,98958.22
2023-11-25T00:46:12.029Z,98964.38
2023-11-25T00:46:25.824Z,98956.44
2023-11-25T00:46:39.526Z,98957.28
2023-11-25T00:46:52.424Z,98959.09
2023-11-25T00:47:06.696Z,98960.03
2023-11-25T00:47:20.869Z,98961.75
2023-11-25T00:47:33.695Z,98963.50
2023-11-25T00:47:46.544Z,98958.22
2023-11-25T00:47:59.801Z,98955.59
2023-11-25T00:48:15.067Z,98964.38
2023-11-25T00:48:28.244Z,98960.75
2023-11-25T00:48:42.796Z,98960.75
2023-11-25T00:48:55.824Z,98963.41
2023-11-25T00:49:09.769Z,98961.75
2023-11-25T00:49:22.614Z,98957.41
2023-11-25T00:49:39.519Z,98957.41
2023-11-25T00:49:54.027Z,98958.38
2023-11-25T00:50:07.945Z,98960.03
2023-11-25T00:50:21.645Z,98963.66
2023-11-25T00:50:34.315Z,98967.97
2023-11-25T00:50:46.970Z,98962.69
2023-11-25T00:50:59.631Z,98961.00
2023-11-25T00:51:12.321Z,98964.50
2023-11-25T00:51:25.884Z,98958.38
2023-11-25T00:51:38.989Z,98957.41
2023-11-25T00:51:51.687Z,98962.69
2023-11-25T00:52:04.518Z,98960.88
2023-11-25T00:52:18.912Z,98960.03
2023-11-25T00:52:32.046Z,98958.22
2023-11-25T00:52:44.864Z,98958.13
2023-11-25T00:52:57.915Z,98959.09
2023-11-25T00:53:10.565Z,98958.13
2023-11-25T00:53:23.229Z,98959.94
2023-11-25T00:53:35.900Z,98966.03
2023-11-25T00:53:48.613Z,98966.88
2023-11-25T00:54:02.549Z,98962.56
2023-11-25T00:54:15.209Z,98962.47
2023-11-25T00:54:30.489Z,98963.41
2023-11-25T00:54:43.261Z,98966.03
2023-11-25T00:54:56.421Z,98972.16
2023-11-25T00:55:10.199Z,98966.88
2023-11-25T00:55:23.073Z,98973.03
2023-11-25T00:55:36.974Z,98968.69
2023-11-25T00:55:49.847Z,98968.56
2023-11-25T00:56:02.651Z,98966.88
2023-11-25T00:56:17.035Z,98970.38
2023-11-25T00:56:29.721Z,98967.75
2023-11-25T00:56:42.724Z,98970.38
2023-11-25T00:56:55.398Z,98971.06
2023-11-25T00:57:08.114Z,98977.34
2023-11-25T00:57:21.091Z,98969.41
2023-11-25T00:57:35.090Z,98973.72
2023-11-25T00:57:47.756Z,98973.72
2023-11-25T00:58:00.624Z,98978.88
2023-11-25T00:58:13.438Z,98977.22
2023-11-25T00:58:26.201Z,98974.59
2023-11-25T00:58:38.946Z,98976.25
2023-11-25T00:58:51.637Z,98973.72
2023-11-25T00:59:04.394Z,98968.31
2023-11-25T00:59:18.106Z,98975.41
2023-11-25T00:59:30.848Z,98975.41
2023-11-25T00:59:44.332Z,98974.44
2023-11-25T00:59:56.988Z,98975.41
2023-11-25T01:00:16.998Z,98976.25
2023-11-25T01:00:32.025Z,98974.44
2023-11-25T01:00:45.111Z,98969.88
2023-11-25T01:00:58.035Z,98972.66
2023-11-25T01:01:11.756Z,98971.69
2023-11-25T01:01:24.498Z,98970.75
2023-11-25T01:01:37.386Z,98977.81
2023-11-25T01:01:50.809Z,98972.53
2023-11-25T01:02:03.952Z,98977.81
2023-11-25T01:02:16.749Z,98978.66
2023-11-25T01:02:29.885Z,98969.75
2023-11-25T01:02:43.077Z,98975.88
2023-11-25T01:02:57.688Z,98975.88
2023-11-25T01:03:10.691Z,98975.88
2023-11-25T01:03:25.732Z,98967.94
2023-11-25T01:03:38.568Z,98972.41
2023-11-25T01:03:51.884Z,98981.16
2023-11-25T01:04:05.308Z,98975.06
2023-11-25T01:04:18.159Z,98973.25
2023-11-25T01:04:30.959Z,98979.50
2023-11-25T01:04:44.107Z,98976.75
2023-11-25T01:04:57.911Z,98971.56
2023-11-25T01:05:11.072Z,98974.22
2023-11-25T01:05:24.317Z,98975.88
2023-11-25T01:05:37.015Z,98975.06
2023-11-25T01:05:50.361Z,98976.03
2023-11-25T01:06:08.358Z,98979.50
2023-11-25T01:06:21.365Z,98980.44
2023-11-25T01:06:35.060Z,98984.78
2023-11-25T01:06:48.332Z,98984.78
2023-11-25T01:07:01.331Z,98980.34
2023-11-25T01:07:14.052Z,98983.81
2023-11-25T01:07:26.787Z,98982.97
2023-11-25T01:07:39.595Z,98982.03
2023-11-25T01:07:53.394Z,98975.16
2023-11-25T01:08:07.007Z,98980.34
2023-11-25T01:08:20.384Z,98979.50
2023-11-25T01:08:34.091Z,98979.50
2023-11-25T01:08:47.031Z,98979.50
2023-11-25T01:08:59.760Z,98975.88
2023-11-25T01:09:13.876Z,98982.03
2023-11-25T01:09:29.529Z,98987.44
2023-11-25T01:09:42.235Z,98975.06
2023-11-25T01:09:54.990Z,98976.84
2023-11-25T01:10:09.456Z,98982.03
2023-11-25T01:10:22.243Z,98981.16
2023-11-25T01:10:36.267Z,98972.28
2023-11-25T01:10:49.075Z,98981.06
2023-11-25T01:11:01.742Z,98980.34
2023-11-25T01:11:17.131Z,98978.53
2023-11-25T01:11:30.213Z,98979.38
2023-11-25T01:11:42.933Z,98976.59
2023-11-25T01:11:56.633Z,98973.97
2023-11-25T01:12:11.938Z,98973.97
2023-11-25T01:12:24.615Z,98973.13
2023-11-25T01:12:37.319Z,98982.88
2023-11-25T01:12:50.095Z,98982.88
2023-11-25T01:13:02.879Z,98977.59
2023-11-25T01:13:15.622Z,98981.88
2023-11-25T01:13:29.930Z,98979.25
2023-11-25T01:13:43.655Z,98979.25
2023-11-25T01:13:56.342Z,98981.06
2023-11-25T01:14:09.519Z,98975.78
2023-11-25T01:14:22.873Z,98983.59
2023-11-25T01:14:35.563Z,98973.97
2023-11-25T01:14:48.455Z,98979.25
2023-11-25T01:15:01.176Z,98979.25
2023-11-25T01:15:15.499Z,98984.41
2023-11-25T01:15:29.476Z,98983.59
2023-11-25T01:15:42.155Z,98981.78
2023-11-25T01:15:55.452Z,98983.59
2023-11-25T01:16:17.104Z,98985.25
2023-11-25T01:16:30.017Z,98982.59
2023-11-25T01:16:42.825Z,98974.78
2023-11-25T01:16:55.626Z,98975.78
2023-11-25T01:17:10.306Z,98986.09
2023-11-25T01:17:27.379Z,98975.66
2023-11-25T01:17:40.491Z,98980.06
2023-11-25T01:17:53.399Z,98988.88
2023-11-25T01:18:06.429Z,98982.72
2023-11-25T01:18:19.340Z,98984.53
2023-11-25T01:18:33.593Z,98978.31
2023-11-25T01:18:46.331Z,98983.59
2023-11-25T01:18:58.991Z,98986.22
2023-11-25T01:19:11.847Z,98991.38
2023-11-25T01:19:25.068Z,98984.53
2023-11-25T01:19:39.223Z,98986.22
2023-11-25T01:19:51.981Z,98975.78
2023-11-25T01:20:06.774Z,98987.16
2023-11-25T01:20:19.517Z,98980.22
2023-11-25T01:20:32.562Z,98985.50
2023-11-25T01:20:45.251Z,98980.22
2023-11-25T01:20:58.764Z,98986.22
2023-11-25T01:21:12.481Z,98985.50
2023-11-25T01:21:25.193Z,98975.88
2023-11-25T01:21:37.888Z,98982.03
2023-11-25T01:21:50.635Z,98980.34
2023-11-25T01:22:04.642Z,98984.78
2023-11-25T01:22:18.657Z,98984.78
2023-11-25T01:22:31.364Z,98982.25
2023-11-25T01:22:47.057Z,98985.72
2023-11-25T01:22:59.838Z,98983.09
2023-11-25T01:23:13.784Z,98983.81
2023-11-25T01:23:26.531Z,98984.78
2023-11-25T01:23:39.214Z,98989.25
2023-11-25T01:23:51.886Z,98988.38
2023-11-25T01:24:06.208Z,98992.81
2023-11-25T01:24:19.138Z,98994.63
2023-11-25T01:24:31.831Z,98986.69
2023-11-25T01:24:44.575Z,98989.34
2023-11-25T01:24:58.567Z,98992.00
2023-11-25T01:25:11.368Z,98992.00
2023-11-25T01:25:24.328Z,98991.16
2023-11-25T01:25:37.124Z,98985.88
2023-11-25T01:25:49.864Z,98990.28
2023-11-25T01:26:02.780Z,98991.16
2023-11-25T01:26:15.657Z,98997.38
2023-11-25T01:26:28.349Z,99000.03
2023-11-25T01:26:42.098Z,99003.50
2023-11-25T01:26:55.580Z,98994.75
2023-11-25T01:27:08.547Z,98997.38
2023-11-25T01:27:22.248Z,98997.50
2023-11-25T01:27:36.724Z,98997.38
2023-11-25T01:27:49.442Z,99004.47
2023-11-25T01:28:02.174Z,98994.84
2023-11-25T01:28:14.940Z,98997.50
2023-11-25T01:28:30.968Z,98993.19
2023-11-25T01:28:43.819Z,98997.50
2023-11-25T01:28:56.520Z,98999.31
2023-11-25T01:29:09.502Z,98996.66
2023-11-25T01:29:22.149Z,99005.41
2023-11-25T01:29:36.109Z,99002.78
2023-11-25T01:29:48.797Z,99006.41
2023-11-25T01:30:01.478Z,98998.47
2023-11-25T01:30:15.735Z,98995.81
2023-11-25T01:30:28.453Z,99001.94
2023-11-25T01:30:41.454Z,98998.47
2023-11-25T01:30:54.378Z,99000.38
2023-11-25T01:31:09.919Z,98999.44
2023-11-25T01:31:22.739Z,99002.09
2023-11-25T01:31:35.494Z,99002.09
2023-11-25T01:31:48.324Z,99006.41
2023-11-25T01:32:02.096Z,99001.13
2023-11-25T01:32:14.781Z,99001.13
2023-11-25T01:32:27.530Z,99003.66
2023-11-25T01:32:40.338Z,98997.50
2023-11-25T01:32:53.123Z,99000.13
2023-11-25T01:33:07.834Z,99003.66
2023-11-25T01:33:21.109Z,99002.78
2023-11-25T01:33:35.171Z,99006.16
2023-11-25T01:33:48.326Z,99003.66
2023-11-25T01:34:02.902Z,99003.66
2023-11-25T01:34:15.912Z,99001.00
2023-11-25T01:34:28.725Z,99002.66
2023-11-25T01:34:41.575Z,99005.19
2023-11-25T01:34:54.968Z,98999.19
2023-11-25T01:35:08.074Z,99002.66
2023-11-25T01:35:20.806Z,99003.50
2023-11-25T01:35:33.491Z,99007.97
2023-11-25T01:35:48.473Z,99007.13
2023-11-25T01:36:02.777Z,99007.13
2023-11-25T01:36:15.491Z,98999.19
2023-11-25T01:36:28.196Z,99003.50
2023-11-25T01:36:40.863Z,99002.56
2023-11-25T01:36:53.620Z,99002.56
2023-11-25T01:37:06.380Z,99005.19
2023-11-25T01:37:19.436Z,99007.84
2023-11-25T01:37:32.369Z,99011.31
2023-11-25T01:37:45.214Z,99002.56
2023-11-25T01:37:58.913Z,99007.00
2023-11-25T01:38:11.610Z,99005.19
2023-11-25T01:38:24.676Z,99007.00
2023-11-25T01:38:37.791Z,99012.16
2023-11-25T01:38:50.770Z,99004.22
2023-11-25T01:39:06.335Z,99006.88
2023-11-25T01:39:19.182Z,99009.50
2023-11-25T01:39:31.877Z,99013.03
2023-11-25T01:39:44.651Z,99007.72
2023-11-25T01:39:57.367Z,99011.22
2023-11-25T01:40:13.448Z,99012.03
2023-11-25T01:40:26.294Z,99014.56
2023-11-25T01:40:39.051Z,99017.22
2023-11-25T01:40:54.096Z,99013.75
2023-11-25T01:41:07.774Z,99014.56
2023-11-25T01:41:20.436Z,99021.53
2023-11-25T01:41:33.250Z,99011.94
2023-11-25T01:41:46.060Z,99014.56
2023-11-25T01:41:58.718Z,99025.97
2023-11-25T01:42:12.395Z,99011.94
2023-11-25T01:42:25.907Z,99009.28
2023-11-25T01:42:38.717Z,99014.56
2023-11-25T01:42:51.555Z,99011.09
2023-11-25T01:43:09.210Z,99016.38
2023-11-25T01:43:24.783Z,99016.38
2023-11-25T01:43:38.273Z,99015.53
2023-11-25T01:43:51.304Z,99013.75
2023-11-25T01:44:05.497Z,99017.22
2023-11-25T01:44:18.230Z,99020.94
2023-11-25T01:44:30.882Z,99016.50
2023-11-25T01:44:44.061Z,99013.84
2023-11-25T01:44:56.850Z,99013.75
2023-11-25T01:45:10.631Z,99012.88
2023-11-25T01:45:23.329Z,99014.69
2023-11-25T01:45:36.025Z,99012.88
2023-11-25T01:45:50.419Z,99016.25
2023-11-25T01:46:05.450Z,99022.50
2023-11-25T01:46:32.791Z,99024.31
2023-11-25T01:46:45.648Z,99020.81
2023-11-25T01:46:59.088Z,99023.44
2023-11-25T01:47:13.343Z,99019.13
2023-11-25T01:47:26.070Z,99017.31
2023-11-25T01:47:39.017Z,99015.66
2023-11-25T01:47:53.765Z,99016.50
2023-11-25T01:48:07.196Z,99026.22
2023-11-25T01:48:20.892Z,99020.06
2023-11-25T01:48:36.022Z,99020.06
2023-11-25T01:48:48.745Z,99021.06
2023-11-25T01:49:01.580Z,99022.72
2023-11-25T01:49:16.354Z,99016.59
2023-11-25T01:49:29.363Z,99023.69
2023-11-25T01:49:44.979Z,99020.06
2023-11-25T01:49:58.557Z,99028.97
2023-11-25T01:50:11.888Z,99028.97
2023-11-25T01:50:26.072Z,99022.72
2023-11-25T01:50:40.553Z,99025.38
2023-11-25T01:50:53.757Z,99028.97
2023-11-25T01:51:07.494Z,99029.72
2023-11-25T01:51:20.498Z,99034.25
2023-11-25T01:51:33.837Z,99025.50
2023-11-25T01:51:50.687Z,99032.56
2023-11-25T01:52:05.288Z,99029.09
2023-11-25T01:52:18.641Z,99028.97
2023-11-25T01:52:32.317Z,99028.97
2023-11-25T01:52:46.035Z,99030.78
2023-11-25T01:52:59.411Z,99030.66
2023-11-25T01:53:14.974Z,99031.72
2023-11-25T01:53:29.589Z,99029.94
2023-11-25T01:53:43.405Z,99030.78
2023-11-25T01:53:56.643Z,99030.91
2023-11-25T01:54:12.218Z,99025.63
2023-11-25T01:54:26.246Z,99028.25
2023-11-25T01:54:39.377Z,99033.66
2023-11-25T01:54:53.779Z,99039.78
2023-11-25T01:55:09.870Z,99034.50
2023-11-25T01:55:23.268Z,99034.50
2023-11-25T01:55:37.096Z,99035.34
2023-11-25T01:55:52.806Z,99034.50
2023-11-25T01:56:06.913Z,99039.78
2023-11-25T01:56:19.772Z,99040.63
2023-11-25T01:56:33.172Z,99034.50
2023-11-25T01:56:49.707Z,99029.19
2023-11-25T01:57:03.367Z,99033.66
2023-11-25T01:57:21.764Z,99032.81
2023-11-25T01:57:37.388Z,99033.66
2023-11-25T01:57:50.804Z,99037.13
2023-11-25T01:58:04.327Z,99042.41
2023-11-25T01:58:21.275Z,99045.06
2023-11-25T01:58:34.152Z,99039.78
2023-11-25T01:58:47.072Z,99034.50
2023-11-25T01:59:00.039Z,99038.94
2023-11-25T01:59:16.700Z,99038.00
2023-11-25T01:59:32.517Z,99039.78
2023-11-25T01:59:48.072Z,99041.47
2023-11-25T02:00:00.857Z,99040.50
2023-11-25T02:00:15.408Z,99037.84
2023-11-25T02:00:30.061Z,99041.47
2023-11-25T02:00:44.616Z,99037.84
2023-11-25T02:00:57.847Z,99038.81
2023-11-25T02:01:10.959Z,99035.22
2023-11-25T02:01:25.302Z,99030.78
2023-11-25T02:01:39.533Z,99029.94
2023-11-25T02:01:53.145Z,99031.63
2023-11-25T02:02:07.050Z,99030.78
2023-11-25T02:02:22.706Z,99035.22
2023-11-25T02:02:36.481Z,99041.47
2023-11-25T02:02:51.032Z,99035.22
2023-11-25T02:03:05.233Z,99035.22
2023-11-25T02:03:18.326Z,99043.13
2023-11-25T02:03:32.707Z,99044.09
2023-11-25T02:03:47.236Z,99040.50
2023-11-25T02:04:00.008Z,99040.50
2023-11-25T02:04:12.832Z,99037.03
2023-11-25T02:04:25.763Z,99031.63
2023-11-25T02:04:38.591Z,99037.84
2023-11-25T02:04:51.778Z,99038.72
2023-11-25T02:05:05.165Z,99041.34
2023-11-25T02:05:19.077Z,99044.00
2023-11-25T02:05:31.845Z,99044.84
2023-11-25T02:05:45.616Z,99045.78
2023-11-25T02:05:58.629Z,99045.78
2023-11-25T02:06:11.476Z,99043.13
2023-11-25T02:06:24.579Z,99047.59
2023-11-25T02:06:37.624Z,99046.75
2023-11-25T02:06:50.947Z,99044.00
2023-11-25T02:07:04.330Z,99045.78
2023-11-25T02:07:17.208Z,99044.00
2023-11-25T02:07:31.071Z,99047.59
2023-11-25T02:07:44.048Z,99039.56
2023-11-25T02:07:56.846Z,99045.78
2023-11-25T02:08:09.790Z,99041.47
2023-11-25T02:08:23.571Z,99044.94
2023-11-25T02:08:36.304Z,99044.00
2023-11-25T02:08:49.026Z,99043.13
2023-11-25T02:09:01.739Z,99045.78
2023-11-25T02:09:15.561Z,99051.06
2023-11-25T02:09:28.317Z,99044.84
2023-11-25T02:09:41.309Z,99043.13
2023-11-25T02:09:53.997Z,99049.41
2023-11-25T02:10:10.538Z,99048.41
2023-11-25T02:10:23.275Z,99045.78
2023-11-25T02:10:36.011Z,99049.28
2023-11-25T02:10:48.723Z,99043.13
2023-11-25T02:11:01.939Z,99046.50
2023-11-25T02:11:14.727Z,99044.84
2023-11-25T02:11:28.527Z,99050.13
2023-11-25T02:11:58.618Z,99048.31
2023-11-25T02:12:12.238Z,99051.78
2023-11-25T02:12:25.151Z,99044.84
2023-11-25T02:12:39.389Z,99050.97
2023-11-25T02:12:52.183Z,99043.13
2023-11-25T02:13:09.323Z,99051.78
2023-11-25T02:13:24.844Z,99051.94
2023-11-25T02:13:38.882Z,99050.13
2023-11-25T02:13:51.655Z,99049.28
2023-11-25T02:14:04.541Z,99052.75
2023-11-25T02:14:17.226Z,99050.13
2023-11-25T02:14:30.121Z,99050.97
2023-11-25T02:14:43.151Z,99055.41
2023-11-25T02:14:55.853Z,99046.66
2023-11-25T02:15:12.432Z,99047.47
2023-11-25T02:15:26.420Z,99054.44
2023-11-25T02:15:41.152Z,99054.44
2023-11-25T02:15:54.279Z,99050.97
2023-11-25T02:16:11.950Z,99061.53
2023-11-25T02:16:24.923Z,99055.41
2023-11-25T02:16:38.094Z,99062.34
2023-11-25T02:16:52.939Z,99061.53
2023-11-25T02:17:06.064Z,99060.69
2023-11-25T02:17:18.949Z,99055.41
2023-11-25T02:17:32.177Z,99057.06
2023-11-25T02:17:45.706Z,99057.06
2023-11-25T02:17:59.660Z,99062.34
2023-11-25T02:18:12.436Z,99060.59
2023-11-25T02:18:26.420Z,99060.69
2023-11-25T02:18:39.373Z,99068.50
2023-11-25T02:18:53.448Z,99057.94
2023-11-25T02:19:08.244Z,99060.59
2023-11-25T02:19:22.565Z,99065.00
2023-11-25T02:19:35.363Z,99065.88
2023-11-25T02:19:49.441Z,99066.69
2023-11-25T02:20:05.877Z,99062.25
2023-11-25T02:20:31.110Z,99073.66
2023-11-25T02:20:43.794Z,99069.34
2023-11-25T02:20:56.515Z,99072.81
2023-11-25T02:21:11.272Z,99067.66
2023-11-25T02:21:24.479Z,99069.34
2023-11-25T02:21:40.827Z,99073.78
2023-11-25T02:21:54.775Z,99065.00
2023-11-25T02:22:09.582Z,99075.56
2023-11-25T02:22:23.161Z,99076.44
2023-11-25T02:22:37.662Z,99070.28
2023-11-25T02:22:58.455Z,99067.66
2023-11-25T02:23:17.615Z,99069.44
2023-11-25T02:23:30.528Z,99072.94
2023-11-25T02:23:44.319Z,99073.91
2023-11-25T02:23:57.220Z,99073.91
2023-11-25T02:24:10.253Z,99076.53
2023-11-25T02:24:27.398Z,99077.38
2023-11-25T02:24:40.254Z,99078.22
2023-11-25T02:24:53.321Z,99066.81
2023-11-25T02:25:07.238Z,99080.03
2023-11-25T02:25:23.150Z,99079.19
2023-11-25T02:25:35.961Z,99073.91
2023-11-25T02:25:49.298Z,99075.72
2023-11-25T02:26:04.676Z,99076.53
2023-11-25T02:26:18.849Z,99079.19
2023-11-25T02:26:31.986Z,99077.38
2023-11-25T02:26:44.713Z,99081.84
2023-11-25T02:27:00.913Z,99080.03
2023-11-25T02:27:14.907Z,99078.34
2023-11-25T02:27:27.598Z,99081.84
2023-11-25T02:27:40.609Z,99085.41
2023-11-25T02:27:54.455Z,99085.41
2023-11-25T02:28:07.255Z,99085.41
2023-11-25T02:28:21.061Z,99081.00
2023-11-25T02:28:36.905Z,99081.84
2023-11-25T02:28:49.697Z,99078.22
2023-11-25T02:29:02.385Z,99082.66
2023-11-25T02:29:15.509Z,99080.84
2023-11-25T02:29:32.142Z,99085.19
2023-11-25T02:29:44.989Z,99076.53
2023-11-25T02:29:57.697Z,99082.66
2023-11-25T02:30:11.339Z,99078.22
2023-11-25T02:30:24.673Z,99083.50
2023-11-25T02:30:37.511Z,99081.84
2023-11-25T02:30:50.586Z,99084.47
2023-11-25T02:31:04.499Z,99082.66
2023-11-25T02:31:18.419Z,99088.78
2023-11-25T02:31:31.627Z,99084.47
2023-11-25T02:31:44.640Z,99083.50
2023-11-25T02:31:59.452Z,99087.13
2023-11-25T02:32:12.653Z,99078.34
2023-11-25T02:32:25.490Z,99086.13
2023-11-25T02:32:39.049Z,99082.56
2023-11-25T02:32:52.061Z,99084.38
2023-11-25T02:33:05.122Z,99087.00
2023-11-25T02:33:19.138Z,99086.13
2023-11-25T02:33:38.062Z,99086.13
2023-11-25T02:33:50.764Z,99087.94
2023-11-25T02:34:03.571Z,99091.44
2023-11-25T02:34:16.374Z,99086.13
2023-11-25T02:34:30.466Z,99085.19
2023-11-25T02:34:43.445Z,99096.72
2023-11-25T02:34:56.165Z,99090.59
2023-11-25T02:35:12.826Z,99088.78
2023-11-25T02:35:26.402Z,99091.44
2023-11-25T02:35:39.123Z,99095.03
2023-11-25T02:35:53.546Z,99093.22
2023-11-25T02:36:09.156Z,99099.34
2023-11-25T02:36:21.927Z,99094.06
2023-11-25T02:36:35.006Z,99095.75
2023-11-25T02:36:49.780Z,99094.94
2023-11-25T02:37:02.965Z,99095.75
2023-11-25T02:37:17.315Z,99093.13
2023-11-25T02:37:30.147Z,99092.16
2023-11-25T02:37:44.709Z,99102.72
2023-11-25T02:37:58.932Z,99096.59
2023-11-25T02:38:11.931Z,99099.25
2023-11-25T02:38:25.695Z,99091.31
2023-11-25T02:38:38.760Z,99093.13
2023-11-25T02:38:51.709Z,99095.75
2023-11-25T02:39:05.413Z,99098.41
2023-11-25T02:39:19.757Z,99097.44
2023-11-25T02:39:32.546Z,99101.06
2023-11-25T02:39:45.314Z,99098.41
2023-11-25T02:39:58.029Z,99101.06
2023-11-25T02:40:14.785Z,99098.41
2023-11-25T02:40:28.817Z,99094.94
2023-11-25T02:40:45.012Z,99098.41
2023-11-25T02:40:57.932Z,99099.25